createdAt,value
2023-10-17T08:08:02.450Z,5.30
2023-10-17T08:12:56.145Z,4.87
2023-10-17T08:17:50.556Z,5.10
2023-10-17T08:22:58.024Z,4.60
2023-10-17T08:27:55.705Z,3.50
2023-10-17T08:32:56.846Z,4.40
2023-10-17T08:37:53.769Z,4.20
2023-10-17T08:42:51.318Z,3.50
2023-10-17T08:47:47.590Z,3.13
2023-10-17T08:52:42.946Z,3.10
2023-10-17T08:57:38.751Z,3.20
2023-10-17T09:02:34.045Z,3.40
2023-10-17T09:07:33.937Z,2.90
2023-10-17T09:12:27.501Z,3.10
2023-10-17T09:17:31.954Z,3.30
2023-10-17T09:22:45.305Z,3.10
2023-10-17T09:27:38.922Z,2.77
2023-10-17T09:32:37.219Z,3.23
2023-10-17T09:37:31.608Z,3.40
2023-10-17T09:42:27.592Z,2.97
2023-10-17T09:47:25.348Z,3.20
2023-10-17T09:52:22.691Z,3.33
2023-10-17T09:57:21.846Z,3.40
2023-10-17T10:02:21.661Z,3.50
2023-10-17T10:07:22.607Z,3.67
2023-10-17T10:12:16.841Z,3.37
2023-10-17T10:17:10.926Z,2.97
2023-10-17T10:22:08.044Z,3.50
2023-10-17T10:27:22.235Z,3.40
2023-10-17T10:32:35.818Z,3.00
2023-10-17T10:37:31.114Z,3.27
2023-10-17T10:42:27.190Z,3.40
2023-10-17T10:47:20.868Z,3.50
2023-10-17T10:52:14.748Z,3.20
2023-10-17T10:57:10.036Z,3.00
2023-10-17T11:02:04.046Z,3.33
2023-10-17T11:06:57.580Z,3.23
2023-10-17T11:11:52.386Z,2.77
2023-10-17T11:16:51.945Z,3.40
2023-10-17T11:21:46.090Z,2.53
2023-10-17T11:26:42.389Z,2.60
2023-10-17T11:31:36.795Z,2.17
2023-10-17T11:36:37.154Z,2.20
2023-10-17T11:41:32.896Z,2.00
2023-10-17T11:46:33.402Z,2.03
2023-10-17T11:51:30.515Z,1.80
2023-10-17T11:56:27.858Z,2.00
2023-10-17T12:01:21.560Z,1.83
2023-10-17T12:06:18.396Z,2.23
2023-10-17T12:11:12.477Z,2.17
2023-10-17T12:16:11.226Z,1.80
2023-10-17T12:21:06.064Z,1.80
2023-10-17T12:26:02.907Z,4.60
2023-10-17T12:30:56.899Z,2.30
2023-10-17T12:35:53.488Z,1.90
2023-10-17T12:40:47.508Z,1.90
2023-10-17T12:45:41.511Z,1.90
2023-10-17T12:50:36.668Z,1.90
2023-10-17T12:55:31.964Z,1.70
2023-10-17T13:00:29.180Z,1.97
2023-10-17T13:05:23.140Z,1.65
2023-10-17T13:10:17.038Z,1.75
2023-10-17T13:15:16.946Z,2.90
2023-10-17T13:20:19.494Z,1.70
2023-10-17T13:25:23.839Z,1.60
2023-10-17T13:30:20.533Z,1.50
2023-10-17T13:35:14.418Z,1.50
2023-10-17T13:40:11.626Z,1.80
2023-10-17T13:45:06.880Z,2.00
2023-10-17T13:50:02.138Z,1.90
2023-10-17T13:54:55.749Z,1.77
2023-10-17T13:59:54.686Z,1.95
2023-10-17T14:04:49.035Z,1.90
2023-10-17T14:09:44.516Z,1.67
2023-10-17T14:14:38.109Z,1.88
2023-10-17T14:19:38.626Z,2.00
2023-10-17T14:24:51.167Z,1.93
2023-10-17T14:29:47.036Z,2.17
2023-10-17T14:34:40.654Z,2.00
2023-10-17T14:39:34.820Z,2.03
2023-10-17T14:44:30.436Z,2.20
2023-10-17T14:49:25.898Z,2.13
2023-10-17T14:54:19.539Z,2.13
2023-10-17T14:59:13.229Z,2.77
2023-10-17T15:04:07.362Z,2.70
2023-10-17T15:09:04.926Z,2.90
2023-10-17T15:13:58.569Z,3.33
2023-10-17T15:18:53.523Z,4.93
2023-10-17T15:23:47.648Z,3.73
2023-10-17T15:28:45.991Z,3.57
2023-10-17T15:33:40.529Z,2.90
2023-10-17T15:38:35.250Z,3.60
2023-10-17T15:43:29.098Z,3.10
2023-10-17T15:48:25.363Z,3.20
2023-10-17T15:53:19.263Z,3.80
2023-10-17T15:58:13.081Z,4.00
2023-10-17T16:03:06.947Z,3.73
2023-10-17T16:08:02.332Z,4.27
2023-10-17T16:12:55.979Z,11.83
2023-10-17T16:17:49.849Z,12.67
2023-10-17T16:22:43.689Z,9.97
2023-10-17T16:27:39.233Z,13.57
2023-10-17T16:32:33.570Z,14.43
2023-10-17T16:37:27.292Z,9.10
2023-10-17T16:42:21.345Z,10.30
2023-10-17T16:47:16.711Z,8.73
2023-10-17T16:52:11.325Z,5.43
2023-10-17T16:57:06.598Z,5.30
2023-10-17T17:02:00.754Z,5.17
2023-10-17T17:06:55.945Z,5.80
2023-10-17T17:11:49.923Z,6.10
2023-10-17T17:16:44.741Z,6.53
2023-10-17T17:21:38.772Z,3.93
